Time;durP1;ratioP1;P1;durP2;ratioP2;P2;SDS_P1;SDS_P2;PMS_P1;PMS_P2;Temp;Humidity;BMP_temperature;BMP_pressure;BME280_temperature;BME280_humidity;BME280_pressure;Samples;Min_cycle;Max_cycle;Signal;HPM_P1;HPM_P2
2021/09/29 05:22:47;;;;;;;14.27;7.70;;;;;;;;;;5114268;23;20109;-62
2021/09/29 05:25:13;;;;;;;14.10;6.90;;;;;;;;;;4935498;29;20480;-62
2021/09/29 05:27:39;;;;;;;11.38;6.95;;;;;;;;;;4935498;29;20060;-62
2021/09/29 05:30:05;;;;;;;13.10;6.57;;;;;;;;;;4935221;29;20464;-63
2021/09/29 05:32:31;;;;;;;13.43;6.25;;;;;;;;;;4935079;29;20075;-62
2021/09/29 05:34:57;;;;;;;12.32;6.18;;;;;;;;;;4934971;29;20411;-64
2021/09/29 05:37:23;;;;;;;11.80;5.85;;;;;;;;;;4935189;29;20424;-64
2021/09/29 05:39:49;;;;;;;12.60;5.57;;;;;;;;;;4935082;29;20027;-63
2021/09/29 05:42:15;;;;;;;13.70;5.97;;;;;;;;;;4934931;29;20432;-64
2021/09/29 05:44:41;;;;;;;10.05;5.60;;;;;;;;;;4934901;29;20519;-63
2021/09/29 05:47:09;;;;;;;9.32;5.78;;;;;;;;;;4934915;29;20464;-64
2021/09/29 05:49:35;;;;;;;10.48;6.07;;;;;;;;;;4934847;29;20019;-62
2021/09/29 05:52:01;;;;;;;8.27;5.20;;;;;;;;;;4934906;29;20043;-64
2021/09/29 05:54:29;;;;;;;8.93;4.97;;;;;;;;;;4934819;29;20028;-62
2021/09/29 05:56:55;;;;;;;12.60;5.93;;;;;;;;;;4934849;29;20372;-62
2021/09/29 05:59:21;;;;;;;8.25;5.35;;;;;;;;;;4935033;29;20408;-61
2021/09/29 06:01:47;;;;;;;12.02;5.47;;;;;;;;;;4934627;29;20534;-63
2021/09/29 06:04:13;;;;;;;9.30;5.95;;;;;;;;;;4934949;29;20028;-62
2021/09/29 06:06:39;;;;;;;9.32;5.00;;;;;;;;;;4934659;29;20031;-62
2021/09/29 06:09:05;;;;;;;8.95;5.13;;;;;;;;;;4934636;29;20046;-63
2021/09/29 06:11:31;;;;;;;8.20;4.85;;;;;;;;;;4934625;29;20030;-63
2021/09/29 06:14:01;;;;;;;8.95;5.13;;;;;;;;;;4934381;29;20059;-62
2021/09/29 06:16:28;;;;;;;11.20;5.30;;;;;;;;;;4934381;29;20103;-62
2021/09/29 06:18:54;;;;;;;9.68;5.63;;;;;;;;;;4917355;29;20020;-63
2021/09/29 06:21:20;;;;;;;9.35;4.45;;;;;;;;;;4933583;29;20519;-62
2021/09/29 06:23:46;;;;;;;10.50;5.32;;;;;;;;;;4933459;29;20399;-64
2021/09/29 06:26:13;;;;;;;8.75;4.25;;;;;;;;;;4932598;29;20488;-66
2021/09/29 06:28:39;;;;;;;8.73;4.30;;;;;;;;;;4933106;29;20388;-63
2021/09/29 06:31:06;;;;;;;6.78;4.10;;;;;;;;;;4933548;29;20099;-64
2021/09/29 06:33:33;;;;;;;8.55;4.30;;;;;;;;;;4916625;29;20101;-64
2021/09/29 06:36:00;;;;;;;8.20;4.30;;;;;;;;;;4932843;29;20110;-63
2021/09/29 06:38:26;;;;;;;6.78;4.20;;;;;;;;;;4933028;29;20016;-65
2021/09/29 06:40:52;;;;;;;8.70;4.50;;;;;;;;;;4932705;29;20035;-66
2021/09/29 06:43:18;;;;;;;6.65;4.60;;;;;;;;;;4932973;29;20039;-61
2021/09/29 06:45:44;;;;;;;9.45;4.75;;;;;;;;;;4932795;29;20055;-63
2021/09/29 06:48:10;;;;;;;6.60;4.20;;;;;;;;;;4933036;29;20024;-62
2021/09/29 06:50:36;;;;;;;10.50;4.00;;;;;;;;;;4932678;29;20032;-62
2021/09/29 06:53:03;;;;;;;6.57;3.80;;;;;;;;;;4933037;29;20145;-63
2021/09/29 06:55:29;;;;;;;6.13;3.95;;;;;;;;;;4930271;29;20039;-66
2021/09/29 06:57:55;;;;;;;8.68;3.65;;;;;;;;;;4933897;29;20027;-65
2021/09/29 07:00:22;;;;;;;8.68;3.88;;;;;;;;;;4933159;29;20527;-66
2021/09/29 07:02:48;;;;;;;9.25;3.90;;;;;;;;;;4933761;29;20527;-64
2021/09/29 07:05:15;;;;;;;6.78;3.67;;;;;;;;;;4916576;29;20023;-65
2021/09/29 07:07:41;;;;;;;7.35;3.65;;;;;;;;;;4933834;29;20050;-65
2021/09/29 07:10:08;;;;;;;7.55;3.65;;;;;;;;;;4933822;29;20039;-63
2021/09/29 07:12:38;;;;;;;6.03;3.60;;;;;;;;;;4933758;29;20493;-65
2021/09/29 07:15:06;;;;;;;9.88;4.20;;;;;;;;;;4933905;29;20040;-66
2021/09/29 07:17:32;;;;;;;5.63;3.83;;;;;;;;;;4933970;29;20035;-65
2021/09/29 07:19:58;;;;;;;5.18;3.65;;;;;;;;;;4933585;29;20027;-66
2021/09/29 07:22:25;;;;;;;7.95;3.60;;;;;;;;;;4931873;29;20121;-65
2021/09/29 07:24:51;;;;;;;7.60;3.47;;;;;;;;;;4932360;29;20016;-63
2021/09/29 07:27:17;;;;;;;6.88;3.65;;;;;;;;;;4932396;29;20102;-64
2021/09/29 07:29:43;;;;;;;9.40;4.10;;;;;;;;;;4932155;29;20487;-63
2021/09/29 07:32:09;;;;;;;5.43;3.17;;;;;;;;;;4932123;29;20028;-64
2021/09/29 07:34:36;;;;;;;6.05;3.72;;;;;;;;;;4932184;29;20040;-64
2021/09/29 07:37:02;;;;;;;7.55;3.60;;;;;;;;;;4924850;29;20023;-64
2021/09/29 07:39:28;;;;;;;6.25;3.47;;;;;;;;;;4935822;29;20032;-63
2021/09/29 07:41:55;;;;;;;5.07;3.30;;;;;;;;;;4935795;29;20568;-68
2021/09/29 07:44:21;;;;;;;7.38;3.08;;;;;;;;;;4926348;29;20447;-66
2021/09/29 07:46:47;;;;;;;7.22;3.30;;;;;;;;;;4935833;29;20031;-65
2021/09/29 07:49:15;;;;;;;5.45;3.03;;;;;;;;;;4935546;29;20028;-64
2021/09/29 07:51:41;;;;;;;6.80;3.30;;;;;;;;;;4935727;29;20046;-65
2021/09/29 07:54:07;;;;;;;4.78;3.00;;;;;;;;;;4935820;29;20438;-64
2021/09/29 07:56:33;;;;;;;6.57;3.03;;;;;;;;;;4935212;29;20157;-64
2021/09/29 07:58:59;;;;;;;5.40;2.78;;;;;;;;;;4935546;29;20035;-63
2021/09/29 08:01:25;;;;;;;6.07;2.88;;;;;;;;;;4935611;29;20400;-63
2021/09/29 08:03:51;;;;;;;4.43;3.00;;;;;;;;;;4935676;29;20421;-63
2021/09/29 08:06:17;;;;;;;6.60;3.55;;;;;;;;;;4932875;29;20083;-64
2021/09/29 08:08:43;;;;;;;5.88;3.17;;;;;;;;;;4925882;29;20024;-62
2021/09/29 08:11:10;;;;;;;6.18;3.25;;;;;;;;;;4935544;29;20034;-62
2021/09/29 08:13:36;;;;;;;11.35;3.65;;;;;;;;;;4935097;29;20020;-61
2021/09/29 08:16:03;;;;;;;4.75;3.05;;;;;;;;;;4935282;29;20020;-64
2021/09/29 08:18:29;;;;;;;6.53;3.00;;;;;;;;;;4935464;29;20028;-63
2021/09/29 08:20:57;;;;;;;4.82;3.10;;;;;;;;;;4934973;29;20054;-64
2021/09/29 08:23:32;;;;;;;6.45;3.25;;;;;;;;;;4935373;29;20601;-65
2021/09/29 08:38:55;;;;;;;7.30;3.35;;;;;;;;;;4935367;29;20480;-62
2021/09/29 08:41:38;;;;;;;5.95;3.50;;;;;;;;;;4936255;29;20166;-63
2021/09/29 08:44:07;;;;;;;;;;;;;;;;;;4935609;29;20138;-62
2021/09/29 08:46:49;;;;;;;6.20;3.67;;;;;;;;;;4934531;29;19917;-61
2021/09/29 08:57:51;;;;;;;9.80;2.97;;;;;;;;;;4867219;29;20414;-64
2021/09/29 09:16:45;;;;;;;7.63;2.70;;;;;;;;;;4858082;29;20501;-68
2021/09/29 09:19:13;;;;;;;4.43;3.10;;;;;;;;;;4858208;29;20398;-66
2021/09/29 09:21:43;;;;;;;6.60;3.47;;;;;;;;;;4857470;29;20057;-65
2021/09/29 09:24:15;;;;;;;10.02;2.90;;;;;;;;;;4858217;29;20041;-65
2021/09/29 09:26:41;;;;;;;6.57;3.25;;;;;;;;;;4857958;29;20164;-64
2021/09/29 09:29:08;;;;;;;4.57;2.80;;;;;;;;;;4858067;29;20074;-64
2021/09/29 09:31:35;;;;;;;7.03;2.60;;;;;;;;;;4857939;29;20037;-65
2021/09/29 09:34:03;;;;;;;6.47;2.92;;;;;;;;;;4884456;29;20032;-65
2021/09/29 09:36:32;;;;;;;5.93;2.60;;;;;;;;;;4934938;29;20114;-64
2021/09/29 09:38:58;;;;;;;5.20;2.47;;;;;;;;;;4935206;29;20573;-68
2021/09/29 09:41:24;;;;;;;3.95;1.95;;;;;;;;;;4934964;29;20048;-67
2021/09/29 09:43:55;;;;;;;4.63;2.55;;;;;;;;;;4935371;29;20082;-66
2021/09/29 09:46:23;;;;;;;4.72;2.00;;;;;;;;;;4934982;29;20491;-65
2021/09/29 09:48:59;;;;;;;8.88;2.97;;;;;;;;;;4934924;29;20086;-65
2021/09/29 09:51:25;;;;;;;6.05;2.30;;;;;;;;;;4934621;29;20039;-67
2021/09/29 09:53:56;;;;;;;4.70;2.15;;;;;;;;;;4934713;29;20478;-66
2021/09/29 09:56:29;;;;;;;6.25;2.35;;;;;;;;;;4934893;29;20027;-66
2021/09/29 09:58:59;;;;;;;4.45;2.08;;;;;;;;;;4933914;29;20071;-65
2021/09/29 10:01:31;;;;;;;3.65;2.05;;;;;;;;;;4934441;29;20087;-66
2021/09/29 10:03:57;;;;;;;;;;;;;;;;;;4934953;29;20396;-62
2021/09/29 10:06:24;;;;;;;3.25;2.10;;;;;;;;;;4933492;29;19917;-65
2021/09/29 10:08:58;;;;;;;4.20;1.90;;;;;;;;;;4934440;29;20123;-64
2021/09/29 10:11:29;;;;;;;3.42;1.92;;;;;;;;;;4934153;29;20032;-65
2021/09/29 10:28:10;;;;;;;8.85;3.17;;;;;;;;;;4838130;29;20050;-64
2021/09/29 10:30:43;;;;;;;4.03;2.65;;;;;;;;;;4837998;29;20516;-65
2021/09/29 10:33:20;;;;;;;7.43;2.50;;;;;;;;;;4837466;29;20499;-64
2021/09/29 10:36:03;;;;;;;4.85;2.70;;;;;;;;;;4829870;29;20119;-64
2021/09/29 10:41:06;;;;;;;5.82;2.83;;;;;;;;;;4837936;29;20037;-65
2021/09/29 10:49:30;;;;;;;5.57;2.83;;;;;;;;;;4837102;29;20038;-64
2021/09/29 11:30:39;;;;;;;4.55;2.45;;;;;;;;;;4917834;29;20480;-62
2021/09/29 11:49:55;;;;;;;5.70;2.58;;;;;;;;;;4859416;29;20162;-64
2021/09/29 12:15:06;;;;;;;6.40;3.22;;;;;;;;;;5267898;23;20127;-73
2021/09/29 12:17:35;;;;;;;6.13;3.35;;;;;;;;;;4917330;29;20028;-63
2021/09/29 12:20:12;;;;;;;4.28;2.47;;;;;;;;;;4916885;29;20028;-65
2021/09/29 12:22:45;;;;;;;3.67;2.67;;;;;;;;;;4913791;29;20040;-65
2021/09/29 12:25:16;;;;;;;6.32;2.95;;;;;;;;;;4899526;29;20510;-63
2021/09/29 12:30:41;;;;;;;4.93;2.42;;;;;;;;;;5249657;23;20078;-63
2021/09/29 12:33:43;;;;;;;4.47;2.63;;;;;;;;;;4912362;29;20107;-62
2021/09/29 12:36:13;;;;;;;6.20;2.35;;;;;;;;;;4916527;29;20092;-63
2021/09/29 12:38:40;;;;;;;7.38;2.60;;;;;;;;;;4916162;29;20030;-65
2021/09/29 12:41:06;;;;;;;4.95;2.30;;;;;;;;;;4916019;29;20423;-62
2021/09/29 12:43:33;;;;;;;7.53;2.25;;;;;;;;;;4916112;29;20052;-64
2021/09/29 12:45:59;;;;;;;7.65;2.30;;;;;;;;;;4916404;29;20499;-64
2021/09/29 12:48:29;;;;;;;8.07;2.30;;;;;;;;;;4916646;29;20043;-63
2021/09/29 12:53:46;;;;;;;10.68;2.60;;;;;;;;;;4916811;29;20115;-64
2021/09/29 12:56:20;;;;;;;4.53;1.92;;;;;;;;;;4916589;29;20484;-63
2021/09/29 12:58:47;;;;;;;3.20;1.70;;;;;;;;;;4916440;29;20120;-65
2021/09/29 13:01:13;;;;;;;4.50;2.20;;;;;;;;;;4899429;29;20547;-62
2021/09/29 13:03:39;;;;;;;3.22;2.00;;;;;;;;;;4916408;29;20096;-64
2021/09/29 13:06:05;;;;;;;4.18;1.73;;;;;;;;;;4916637;29;20047;-61
2021/09/29 13:08:33;;;;;;;5.70;2.35;;;;;;;;;;4916460;29;20056;-62
2021/09/29 13:10:59;;;;;;;4.07;2.08;;;;;;;;;;4916576;29;20034;-62
2021/09/29 13:13:26;;;;;;;3.20;1.90;;;;;;;;;;4916086;29;20020;-64
2021/09/29 13:15:54;;;;;;;7.10;2.20;;;;;;;;;;4916338;29;20039;-61
2021/09/29 13:18:37;;;;;;;3.58;1.98;;;;;;;;;;4916117;29;20532;-63
2021/09/29 13:21:12;;;;;;;;;;;;;;;;;;4916424;29;20036;-60
2021/09/29 13:23:43;;;;;;;4.32;2.30;;;;;;;;;;4915612;29;19919;-62
2021/09/29 13:26:28;;;;;;;4.88;1.80;;;;;;;;;;4915978;29;20024;-62
2021/09/29 13:37:08;;;;;;;6.88;2.17;;;;;;;;;;4859920;29;20574;-62
2021/09/29 13:39:34;;;;;;;4.70;1.92;;;;;;;;;;4859668;29;20033;-63
2021/09/29 13:42:00;;;;;;;4.53;2.10;;;;;;;;;;4858270;29;20037;-62
2021/09/29 13:44:26;;;;;;;4.40;1.90;;;;;;;;;;4859546;29;20037;-61
2021/09/29 13:46:53;;;;;;;3.78;1.63;;;;;;;;;;4859050;29;20052;-62
2021/09/29 13:49:22;;;;;;;2.92;1.58;;;;;;;;;;4858976;29;20109;-61
2021/09/29 13:51:50;;;;;;;3.30;1.60;;;;;;;;;;4859026;29;20038;-64
2021/09/29 13:54:20;;;;;;;4.13;1.75;;;;;;;;;;4858927;29;20064;-62
2021/09/29 13:57:00;;;;;;;6.00;2.03;;;;;;;;;;4859076;29;20036;-63
2021/09/29 14:29:13;;;;;;;5.65;2.25;;;;;;;;;;4859376;29;20066;-62
2021/09/29 14:34:06;;;;;;;7.30;2.17;;;;;;;;;;4894749;29;20114;-63
2021/09/29 14:36:32;;;;;;;3.92;2.00;;;;;;;;;;4894718;29;20458;-62
2021/09/29 14:38:58;;;;;;;5.35;1.83;;;;;;;;;;4894680;29;20536;-64
2021/09/29 14:41:24;;;;;;;5.68;2.10;;;;;;;;;;4893933;29;20037;-63
2021/09/29 14:43:51;;;;;;;5.68;2.60;;;;;;;;;;4894048;29;20140;-64
2021/09/29 14:46:17;;;;;;;6.65;2.42;;;;;;;;;;4894109;29;20576;-63
2021/09/29 14:48:43;;;;;;;3.83;2.40;;;;;;;;;;4894421;29;20107;-63
2021/09/29 14:51:10;;;;;;;3.85;2.17;;;;;;;;;;4894733;29;20029;-62
2021/09/29 14:53:37;;;;;;;5.53;2.42;;;;;;;;;;4894304;29;20413;-62
2021/09/29 14:56:04;;;;;;;6.25;2.78;;;;;;;;;;4893661;29;20111;-65
2021/09/29 14:58:31;;;;;;;6.18;2.42;;;;;;;;;;4893729;29;20039;-60
2021/09/29 15:00:57;;;;;;;4.80;2.67;;;;;;;;;;4894701;29;20056;-65
2021/09/29 15:03:23;;;;;;;7.22;2.40;;;;;;;;;;4895635;29;20047;-64
2021/09/29 15:05:50;;;;;;;7.60;3.25;;;;;;;;;;4894795;29;20040;-63
2021/09/29 15:08:16;;;;;;;6.25;2.65;;;;;;;;;;4894528;29;20039;-64
2021/09/29 15:10:42;;;;;;;6.03;3.08;;;;;;;;;;4891764;29;20149;-63
2021/09/29 15:13:11;;;;;;;7.47;2.50;;;;;;;;;;4890990;29;20028;-64
2021/09/29 15:15:49;;;;;;;5.95;2.92;;;;;;;;;;4892883;29;20107;-66
2021/09/29 15:18:23;;;;;;;7.10;2.83;;;;;;;;;;4891442;29;20369;-64
2021/09/29 15:29:21;;;;;;;7.00;3.28;;;;;;;;;;4798654;29;20053;-63
2021/09/29 15:48:08;;;;;;;7.88;3.92;;;;;;;;;;4791424;29;20037;-64
2021/09/29 15:55:41;;;;;;;13.00;5.00;;;;;;;;;;4786701;29;20046;-65
2021/09/29 16:09:00;;;;;;;9.15;4.13;;;;;;;;;;4897980;29;20489;-62
2021/09/29 16:17:12;;;;;;;9.10;4.82;;;;;;;;;;4822005;29;20041;-65
2021/09/29 16:35:01;;;;;;;12.50;5.30;;;;;;;;;;4785058;30;20039;-63
2021/09/29 16:37:28;;;;;;;8.82;5.28;;;;;;;;;;4783012;29;20070;-62
2021/09/29 16:39:54;;;;;;;11.90;5.72;;;;;;;;;;4785423;30;20031;-63
2021/09/29 16:42:20;;;;;;;12.27;5.57;;;;;;;;;;4785031;30;20527;-63
2021/09/29 16:44:47;;;;;;;10.75;6.25;;;;;;;;;;4785057;29;20532;-63
2021/09/29 16:47:13;;;;;;;10.07;5.80;;;;;;;;;;4785404;30;20043;-63
2021/09/29 16:49:40;;;;;;;11.88;5.70;;;;;;;;;;4784861;30;20092;-63
2021/09/29 16:52:11;;;;;;;13.48;5.75;;;;;;;;;;4856946;29;20038;-64
2021/09/29 16:54:38;;;;;;;15.38;6.57;;;;;;;;;;4857112;29;20085;-64
2021/09/29 16:57:10;;;;;;;13.57;5.63;;;;;;;;;;4857927;29;20064;-64
2021/09/29 16:59:50;;;;;;;13.57;6.18;;;;;;;;;;4855858;29;20025;-64
2021/09/29 17:02:16;;;;;;;12.88;6.53;;;;;;;;;;4857509;29;20059;-65
2021/09/29 17:04:45;;;;;;;13.00;5.78;;;;;;;;;;4886196;29;20050;-65
2021/09/29 17:07:11;;;;;;;12.70;6.03;;;;;;;;;;4896812;29;20051;-66
2021/09/29 17:09:37;;;;;;;14.35;5.85;;;;;;;;;;4896233;29;20511;-62
2021/09/29 17:12:04;;;;;;;10.85;5.35;;;;;;;;;;4896795;29;20054;-63
2021/09/29 17:14:30;;;;;;;11.23;6.18;;;;;;;;;;4896027;29;20037;-66
2021/09/29 17:16:56;;;;;;;11.85;6.20;;;;;;;;;;4897370;29;20025;-62
2021/09/29 17:19:22;;;;;;;14.07;6.03;;;;;;;;;;4896903;29;20415;-64
2021/09/29 17:21:48;;;;;;;11.15;5.65;;;;;;;;;;4895894;29;20036;-63
2021/09/29 17:24:14;;;;;;;14.02;6.22;;;;;;;;;;4896742;29;20031;-63
2021/09/29 17:26:40;;;;;;;12.95;5.50;;;;;;;;;;4896738;29;20024;-66
2021/09/29 17:29:07;;;;;;;10.98;5.18;;;;;;;;;;4896136;29;20036;-65
2021/09/29 17:32:00;;;;;;;12.75;5.60;;;;;;;;;;4896238;29;20084;-64
2021/09/29 17:53:05;;;;;;;8.10;4.90;;;;;;;;;;4895822;29;20043;-65
2021/09/29 17:55:34;;;;;;;12.15;5.07;;;;;;;;;;4896226;29;20044;-65
2021/09/29 17:58:01;;;;;;;11.00;5.22;;;;;;;;;;4895389;29;20037;-67
2021/09/29 18:00:28;;;;;;;11.77;5.03;;;;;;;;;;4895866;29;20511;-67
2021/09/29 18:03:06;;;;;;;14.10;5.03;;;;;;;;;;4895609;29;20072;-67
2021/09/29 18:05:38;;;;;;;8.30;4.70;;;;;;;;;;4895676;29;20017;-67
2021/09/29 18:08:05;;;;;;;7.55;4.35;;;;;;;;;;4895551;29;20035;-67
2021/09/29 18:10:32;;;;;;;8.95;4.80;;;;;;;;;;4895828;29;20103;-65
2021/09/29 18:12:59;;;;;;;8.07;4.30;;;;;;;;;;4895580;29;20441;-66
2021/09/29 18:15:25;;;;;;;9.70;4.68;;;;;;;;;;4894840;29;20031;-66
2021/09/29 18:17:51;;;;;;;11.40;4.72;;;;;;;;;;4895667;29;20080;-66
2021/09/29 18:20:17;;;;;;;5.60;4.10;;;;;;;;;;4895432;29;20516;-65
2021/09/29 18:22:45;;;;;;;9.38;4.25;;;;;;;;;;4895389;29;20040;-65
2021/09/29 18:25:12;;;;;;;6.82;3.85;;;;;;;;;;4895123;29;20032;-64
2021/09/29 18:27:38;;;;;;;8.07;4.15;;;;;;;;;;4895623;29;20123;-64
2021/09/29 18:30:05;;;;;;;8.10;3.90;;;;;;;;;;4899081;29;20552;-62
2021/09/29 18:32:31;;;;;;;5.97;3.70;;;;;;;;;;4895643;29;20067;-65
2021/09/29 18:34:58;;;;;;;8.25;4.43;;;;;;;;;;4890036;29;20031;-62
2021/09/29 18:37:25;;;;;;;7.43;3.70;;;;;;;;;;4891266;29;20036;-65
2021/09/29 18:39:54;;;;;;;5.85;3.63;;;;;;;;;;4894485;29;20517;-67
2021/09/29 18:42:21;;;;;;;7.85;4.28;;;;;;;;;;4893271;29;20107;-64
2021/09/29 18:44:47;;;;;;;8.88;3.78;;;;;;;;;;4894770;29;20040;-63
2021/09/29 18:47:14;;;;;;;8.65;4.25;;;;;;;;;;4895464;29;20025;-64
2021/09/29 18:49:42;;;;;;;8.43;4.20;;;;;;;;;;4895387;29;20103;-68
2021/09/29 18:52:12;;;;;;;9.07;4.00;;;;;;;;;;4895963;29;20083;-66
2021/09/29 19:08:35;;;;;;;6.80;3.85;;;;;;;;;;4798836;29;20131;-65
2021/09/29 19:11:02;;;;;;;7.10;4.07;;;;;;;;;;4800356;29;20035;-64
2021/09/29 19:13:28;;;;;;;9.70;4.07;;;;;;;;;;4800093;29;20392;-65
2021/09/29 19:15:55;;;;;;;9.63;4.20;;;;;;;;;;4800783;29;20176;-65
2021/09/29 19:18:22;;;;;;;6.75;3.80;;;;;;;;;;4791419;29;20043;-63
2021/09/29 19:20:49;;;;;;;8.60;4.18;;;;;;;;;;4783282;29;20476;-64
2021/09/29 19:23:15;;;;;;;5.45;3.80;;;;;;;;;;4782449;29;20485;-65
2021/09/29 19:25:42;;;;;;;8.05;4.25;;;;;;;;;;4789374;29;20152;-65
2021/09/29 19:28:23;;;;;;;8.50;4.35;;;;;;;;;;4790804;29;20080;-65
2021/09/29 19:30:49;;;;;;;7.32;4.47;;;;;;;;;;4790390;29;20209;-65
2021/09/29 19:33:15;;;;;;;9.30;4.20;;;;;;;;;;4794178;29;20043;-68
2021/09/29 19:35:41;;;;;;;7.32;3.85;;;;;;;;;;4841774;29;20166;-65
2021/09/29 19:38:07;;;;;;;10.13;4.43;;;;;;;;;;4898431;29;20029;-64
2021/09/29 19:40:33;;;;;;;8.52;4.35;;;;;;;;;;4896425;29;20107;-65
2021/09/29 19:42:59;;;;;;;7.40;4.05;;;;;;;;;;4897668;29;20081;-63
2021/09/29 19:45:25;;;;;;;9.32;4.38;;;;;;;;;;4898384;29;20029;-65
2021/09/29 19:50:31;;;;;;;8.52;4.45;;;;;;;;;;4898367;29;20433;-65
2021/09/29 20:09:26;;;;;;;8.15;4.28;;;;;;;;;;4898065;29;20030;-69
2021/09/29 20:11:53;;;;;;;8.48;4.90;;;;;;;;;;4897722;29;20124;-68
2021/09/29 20:14:19;;;;;;;11.05;5.07;;;;;;;;;;4896882;29;20098;-64
2021/09/29 20:16:46;;;;;;;12.10;5.55;;;;;;;;;;4897235;29;20389;-65
2021/09/29 20:19:13;;;;;;;10.02;4.93;;;;;;;;;;4882660;29;20036;-64
2021/09/29 20:21:39;;;;;;;10.85;5.32;;;;;;;;;;4897945;29;20536;-68
2021/09/29 20:24:07;;;;;;;10.05;4.75;;;;;;;;;;4897461;29;20572;-65
2021/09/29 20:26:33;;;;;;;11.07;5.15;;;;;;;;;;4897645;29;20017;-66
2021/09/29 20:28:59;;;;;;;11.55;5.35;;;;;;;;;;4897514;29;20068;-65
2021/09/29 20:31:27;;;;;;;9.88;5.25;;;;;;;;;;4897105;29;20460;-65
2021/09/29 20:44:21;;;;;;;7.70;4.40;;;;;;;;;;4896983;29;20471;-68
2021/09/29 20:46:47;;;;;;;9.60;4.40;;;;;;;;;;4897782;29;20080;-65
2021/09/29 20:49:14;;;;;;;9.23;4.43;;;;;;;;;;4897887;29;20577;-61
2021/09/29 20:51:40;;;;;;;9.38;4.57;;;;;;;;;;4897634;29;20107;-67
2021/09/29 20:54:07;;;;;;;7.65;4.60;;;;;;;;;;4896937;29;20032;-63
2021/09/29 20:56:35;;;;;;;7.68;4.22;;;;;;;;;;4898112;29;20465;-62
2021/09/29 20:59:02;;;;;;;8.43;4.28;;;;;;;;;;4897153;29;20032;-66
2021/09/29 21:01:28;;;;;;;9.43;4.53;;;;;;;;;;4897264;29;20440;-62
2021/09/29 21:03:54;;;;;;;6.38;4.22;;;;;;;;;;4897481;29;20047;-64
2021/09/29 21:06:20;;;;;;;12.23;4.80;;;;;;;;;;4897594;29;20032;-62
2021/09/29 21:08:53;;;;;;;9.80;4.13;;;;;;;;;;4896835;29;20035;-62
2021/09/29 21:11:32;;;;;;;8.75;4.22;;;;;;;;;;4896930;29;20037;-62
2021/09/29 21:14:05;;;;;;;8.18;4.15;;;;;;;;;;4896755;29;20115;-63
2021/09/29 21:19:00;;;;;;;5.85;3.85;;;;;;;;;;4894232;29;20025;-63
2021/09/29 21:21:26;;;;;;;10.40;3.92;;;;;;;;;;4896613;29;20020;-65
2021/09/29 21:23:54;;;;;;;8.88;4.10;;;;;;;;;;4896541;29;20548;-67
2021/09/29 21:26:23;;;;;;;8.50;3.85;;;;;;;;;;4896679;29;20029;-64
2021/09/29 21:28:50;;;;;;;7.28;4.10;;;;;;;;;;4896615;29;20388;-65
2021/09/29 21:31:18;;;;;;;8.95;3.60;;;;;;;;;;4895930;29;20075;-64
2021/09/29 21:33:50;;;;;;;8.73;4.00;;;;;;;;;;4896372;29;20132;-64
2021/09/29 21:36:21;;;;;;;7.22;4.03;;;;;;;;;;4896589;29;20396;-63
2021/09/29 21:41:44;;;;;;;8.70;3.60;;;;;;;;;;4896078;29;20099;-65
2021/09/29 22:00:38;;;;;;;9.43;4.03;;;;;;;;;;4894847;29;20043;-66
2021/09/29 22:33:05;;;;;;;11.85;5.40;;;;;;;;;;4820438;29;20139;-65
2021/09/29 23:08:15;;;;;;;13.45;5.95;;;;;;;;;;4808020;29;20224;-66
2021/09/29 23:13:37;;;;;;;9.85;5.95;;;;;;;;;;4807656;29;20127;-66
2021/09/29 23:32:38;;;;;;;10.18;6.07;;;;;;;;;;4807873;29;20087;-67
2021/09/29 23:35:05;;;;;;;11.88;5.45;;;;;;;;;;4807586;29;20054;-66
2021/09/29 23:37:36;;;;;;;11.80;6.50;;;;;;;;;;4807696;29;20593;-67
2021/09/29 23:40:14;;;;;;;13.25;6.15;;;;;;;;;;4857144;29;20401;-67
2021/09/29 23:42:41;;;;;;;10.50;5.72;;;;;;;;;;4883140;29;20076;-66
2021/09/29 23:45:07;;;;;;;11.52;5.72;;;;;;;;;;4883447;29;20025;-66
2021/09/29 23:47:35;;;;;;;12.15;5.88;;;;;;;;;;4883370;29;20393;-66
2021/09/29 23:50:03;;;;;;;9.35;5.57;;;;;;;;;;4883390;29;20021;-67
2021/09/29 23:52:29;;;;;;;10.45;6.10;;;;;;;;;;4883163;29;20036;-66
2021/09/29 23:54:55;;;;;;;9.57;5.53;;;;;;;;;;4883140;29;20125;-66
2021/09/29 23:57:21;;;;;;;14.85;6.55;;;;;;;;;;4883297;29;20069;-67
2021/09/29 23:59:48;;;;;;;13.30;6.32;;;;;;;;;;4883218;29;20488;-68
